createdAt,value
2023-06-24T00:01:10.973Z,81.90
2023-06-24T00:03:39.291Z,81.90
2023-06-24T00:06:06.726Z,81.80
2023-06-24T00:08:35.550Z,82.50
2023-06-24T00:11:04.185Z,81.90
2023-06-24T00:13:31.542Z,82.20
2023-06-24T00:15:59.185Z,82.20
2023-06-24T00:18:30.367Z,82.10
2023-06-24T00:20:57.839Z,82.40
2023-06-24T00:23:25.884Z,82.40
2023-06-24T00:25:55.251Z,82.40
2023-06-24T00:28:23.823Z,83.20
2023-06-24T00:30:51.231Z,82.20
2023-06-24T00:33:20.553Z,82.00
2023-06-24T00:35:48.497Z,81.80
2023-06-24T00:38:17.692Z,81.60
2023-06-24T00:40:47.240Z,81.50
2023-06-24T00:43:15.613Z,81.80
2023-06-24T00:45:44.849Z,81.50
2023-06-24T00:48:14.073Z,81.50
2023-06-24T00:50:46.595Z,81.30
2023-06-24T00:53:14.202Z,81.40
2023-06-24T00:55:41.623Z,81.40
2023-06-24T00:58:09.360Z,81.50
2023-06-24T01:00:36.702Z,81.60
2023-06-24T01:03:05.169Z,81.40
2023-06-24T01:05:37.070Z,81.30
2023-06-24T01:08:04.956Z,81.30
2023-06-24T01:10:32.447Z,81.30
2023-06-24T01:12:59.936Z,81.40
2023-06-24T01:15:29.654Z,81.40
2023-06-24T01:18:17.125Z,81.30
2023-06-24T01:20:49.007Z,81.20
2023-06-24T01:23:43.739Z,81.20
2023-06-24T01:26:32.797Z,81.30
2023-06-24T01:29:24.623Z,81.30
2023-06-24T01:31:54.210Z,81.40
2023-06-24T01:34:31.203Z,81.40
2023-06-24T01:37:39.678Z,82.30
2023-06-24T01:40:13.344Z,81.80
2023-06-24T01:42:46.370Z,82.10
2023-06-24T01:45:17.212Z,81.90
2023-06-24T01:47:48.357Z,81.90
2023-06-24T01:50:19.846Z,81.70
2023-06-24T01:52:47.585Z,81.60
2023-06-24T01:55:20.333Z,81.60
2023-06-24T01:57:52.549Z,81.50
2023-06-24T02:00:20.857Z,81.60
2023-06-24T02:02:52.427Z,81.50
2023-06-24T02:05:21.404Z,81.40
2023-06-24T02:07:51.042Z,81.50
2023-06-24T02:10:19.897Z,82.40
2023-06-24T02:12:51.806Z,81.70
2023-06-24T02:15:21.021Z,81.70
2023-06-24T02:17:51.869Z,81.50
2023-06-24T02:20:22.829Z,81.70
2023-06-24T02:22:52.307Z,81.70
2023-06-24T02:25:20.236Z,81.70
2023-06-24T02:27:48.962Z,82.50
2023-06-24T02:30:16.785Z,81.80
2023-06-24T02:32:44.216Z,81.80
2023-06-24T02:35:11.686Z,81.70
2023-06-24T02:37:39.134Z,81.80
2023-06-24T02:40:09.243Z,81.80
2023-06-24T02:42:36.778Z,81.90
2023-06-24T02:45:06.782Z,81.70
2023-06-24T02:47:35.869Z,81.60
2023-06-24T02:50:06.515Z,81.60
2023-06-24T02:52:37.884Z,81.60
2023-06-24T02:55:08.795Z,81.70
2023-06-24T02:57:40.211Z,81.90
2023-06-24T03:00:27.086Z,81.90
2023-06-24T03:03:15.137Z,81.80
2023-06-24T03:05:51.116Z,81.90
2023-06-24T03:08:19.195Z,81.90
2023-06-24T03:10:48.789Z,82.00
2023-06-24T03:13:21.424Z,81.80
2023-06-24T03:15:55.152Z,82.00
2023-06-24T03:18:26.072Z,82.10
2023-06-24T03:20:53.976Z,82.10
2023-06-24T03:23:24.753Z,82.20
2023-06-24T03:25:52.074Z,82.10
2023-06-24T03:28:19.605Z,82.10
2023-06-24T03:30:53.210Z,82.20
2023-06-24T03:33:21.902Z,82.30
2023-06-24T03:35:49.399Z,82.10
2023-06-24T03:38:21.387Z,82.20
2023-06-24T03:40:49.806Z,82.10
2023-06-24T03:43:17.446Z,82.10
2023-06-24T03:45:45.099Z,81.90
2023-06-24T03:48:12.747Z,82.00
2023-06-24T03:50:40.240Z,81.90
2023-06-24T03:53:07.660Z,81.80
2023-06-24T03:55:36.305Z,81.60
2023-06-24T03:58:03.917Z,81.70
2023-06-24T04:00:31.305Z,81.80
2023-06-24T04:03:02.024Z,82.10
2023-06-24T04:05:30.000Z,82.20
2023-06-24T04:07:57.385Z,82.50
2023-06-24T04:10:24.729Z,82.60
2023-06-24T04:12:52.299Z,82.70
2023-06-24T04:15:19.789Z,82.60
2023-06-24T04:17:48.654Z,82.60
2023-06-24T04:20:16.108Z,82.80
2023-06-24T04:22:43.615Z,82.90
2023-06-24T04:25:12.629Z,82.90
2023-06-24T04:27:40.051Z,82.70
2023-06-24T04:30:09.896Z,82.70
2023-06-24T04:32:37.292Z,82.70
2023-06-24T04:35:08.069Z,82.60
2023-06-24T04:37:37.343Z,82.60
2023-06-24T04:40:05.129Z,82.50
2023-06-24T04:42:32.424Z,82.60
2023-06-24T04:44:59.874Z,82.70
2023-06-24T04:47:27.353Z,82.40
2023-06-24T04:49:54.608Z,82.20
2023-06-24T04:52:24.050Z,81.90
2023-06-24T04:54:51.820Z,81.90
2023-06-24T04:57:28.379Z,82.10
2023-06-24T04:59:56.260Z,82.20
2023-06-24T05:02:24.102Z,82.50
2023-06-24T05:04:53.505Z,82.40
2023-06-24T05:07:21.119Z,82.50
2023-06-24T05:09:49.360Z,82.60
2023-06-24T05:12:16.804Z,82.60
2023-06-24T05:14:44.244Z,82.50
2023-06-24T05:17:11.645Z,82.30
2023-06-24T05:19:39.110Z,81.90
2023-06-24T05:22:06.484Z,81.90
2023-06-24T05:24:33.819Z,81.90
2023-06-24T05:27:08.564Z,81.80
2023-06-24T05:29:35.942Z,81.70
2023-06-24T05:32:04.721Z,81.70
2023-06-24T05:34:32.972Z,81.60
2023-06-24T05:37:00.413Z,81.20
2023-06-24T05:39:28.136Z,81.00
2023-06-24T05:41:55.457Z,80.70
2023-06-24T05:44:23.871Z,80.30
2023-06-24T05:46:51.712Z,80.20
2023-06-24T05:49:19.116Z,80.30
2023-06-24T05:51:46.741Z,80.00
2023-06-24T05:54:14.323Z,80.10
2023-06-24T05:56:41.836Z,79.70
2023-06-24T05:59:09.293Z,79.40
2023-06-24T06:01:37.040Z,79.30
2023-06-24T06:04:04.795Z,79.20
2023-06-24T06:06:32.430Z,79.40
2023-06-24T06:09:00.632Z,79.30
2023-06-24T06:11:27.977Z,78.70
2023-06-24T06:13:55.691Z,78.70
2023-06-24T06:16:23.278Z,78.70
2023-06-24T06:18:50.718Z,78.70
2023-06-24T06:21:18.141Z,78.30
2023-06-24T06:23:45.839Z,77.70
2023-06-24T06:26:13.329Z,77.10
2023-06-24T06:28:41.661Z,76.50
2023-06-24T06:31:09.225Z,76.40
2023-06-24T06:33:36.691Z,76.40
2023-06-24T06:36:04.583Z,76.20
2023-06-24T06:38:33.887Z,76.00
2023-06-24T06:41:01.866Z,76.00
2023-06-24T06:43:29.277Z,75.80
2023-06-24T06:45:57.211Z,75.00
2023-06-24T06:48:24.641Z,74.70
2023-06-24T06:50:53.586Z,75.50
2023-06-24T06:53:21.066Z,74.90
2023-06-24T06:55:48.494Z,74.10
2023-06-24T06:58:15.992Z,73.00
2023-06-24T07:00:43.414Z,72.50
2023-06-24T07:03:10.820Z,72.10
2023-06-24T07:05:39.314Z,72.20
2023-06-24T07:08:07.310Z,71.60
2023-06-24T07:10:35.005Z,72.10
2023-06-24T07:13:02.764Z,69.80
2023-06-24T07:15:30.293Z,69.20
2023-06-24T07:17:58.527Z,67.50
2023-06-24T07:20:25.996Z,67.00
2023-06-24T07:22:53.463Z,64.80
2023-06-24T07:25:20.842Z,61.60
2023-06-24T07:27:48.261Z,59.80
2023-06-24T07:30:15.712Z,57.90
2023-06-24T07:32:43.235Z,57.50
2023-06-24T07:35:11.469Z,56.00
2023-06-24T07:37:39.815Z,54.50
2023-06-24T07:40:10.253Z,53.50
2023-06-24T07:42:37.745Z,51.70
2023-06-24T07:45:05.876Z,51.30
2023-06-24T07:47:33.448Z,49.50
2023-06-24T07:50:00.908Z,48.00
2023-06-24T07:52:28.371Z,46.80
2023-06-24T07:54:55.904Z,47.70
2023-06-24T07:57:23.359Z,47.60
2023-06-24T07:59:50.810Z,47.70
2023-06-24T08:02:18.338Z,47.00
2023-06-24T08:04:45.985Z,45.70
2023-06-24T08:07:13.648Z,45.80
2023-06-24T08:09:41.086Z,45.30
2023-06-24T08:12:08.904Z,45.70
2023-06-24T08:14:36.452Z,46.70
2023-06-24T08:17:04.047Z,47.20
2023-06-24T08:19:31.357Z,47.10
2023-06-24T08:21:58.744Z,46.50
2023-06-24T08:24:26.795Z,45.60
2023-06-24T08:26:54.195Z,45.10
2023-06-24T08:29:21.484Z,45.00
2023-06-24T08:31:48.886Z,45.20
2023-06-24T08:34:16.170Z,45.60
2023-06-24T08:36:43.420Z,44.40
2023-06-24T08:39:10.768Z,43.50
2023-06-24T08:41:38.288Z,43.40
2023-06-24T08:44:05.741Z,43.60
2023-06-24T08:46:36.591Z,43.90
2023-06-24T08:49:15.828Z,43.70
2023-06-24T08:51:47.917Z,43.10
2023-06-24T08:54:16.015Z,41.50
2023-06-24T08:56:43.872Z,41.10
2023-06-24T08:59:11.282Z,41.70
2023-06-24T09:01:38.827Z,41.20
2023-06-24T09:04:06.407Z,41.70
2023-06-24T09:06:33.844Z,41.50
2023-06-24T09:09:01.268Z,41.10
2023-06-24T09:11:29.472Z,40.80
2023-06-24T09:14:01.111Z,39.50
2023-06-24T09:16:30.567Z,39.10
2023-06-24T09:18:58.103Z,38.90
2023-06-24T09:21:31.533Z,39.30
2023-06-24T09:23:59.803Z,38.50
2023-06-24T09:26:28.676Z,39.00
2023-06-24T09:28:56.280Z,38.10
2023-06-24T09:31:25.052Z,37.80
2023-06-24T09:33:52.759Z,37.40
2023-06-24T09:36:20.403Z,36.70
2023-06-24T09:38:48.980Z,37.30
2023-06-24T09:41:16.417Z,37.40
2023-06-24T09:43:46.118Z,37.50
2023-06-24T09:46:15.109Z,37.10
2023-06-24T09:48:42.867Z,37.10
2023-06-24T09:51:13.107Z,37.10
2023-06-24T09:53:41.628Z,37.70
2023-06-24T09:56:11.002Z,37.10
2023-06-24T09:58:40.774Z,37.60
2023-06-24T10:01:08.639Z,38.40
2023-06-24T10:03:38.190Z,37.70
2023-06-24T10:06:06.812Z,37.60
2023-06-24T10:08:35.070Z,38.30
2023-06-24T10:11:03.386Z,38.70
2023-06-24T10:13:31.286Z,38.70
2023-06-24T10:15:59.168Z,39.50
2023-06-24T10:18:33.151Z,39.90
2023-06-24T10:21:00.598Z,40.70
2023-06-24T10:23:33.338Z,41.10
2023-06-24T10:26:00.882Z,41.40
2023-06-24T10:28:48.477Z,41.20
2023-06-24T10:31:15.985Z,41.80
2023-06-24T10:33:43.472Z,41.60
2023-06-24T10:36:33.905Z,42.40
2023-06-24T10:39:01.294Z,42.60
2023-06-24T10:41:28.702Z,42.10
2023-06-24T10:43:57.709Z,42.10
2023-06-24T10:46:28.617Z,42.50
2023-06-24T10:48:56.338Z,43.20
2023-06-24T10:51:23.828Z,41.80
2023-06-24T10:53:51.466Z,42.20
2023-06-24T10:56:19.149Z,42.40
2023-06-24T10:58:57.198Z,42.50
2023-06-24T11:01:24.622Z,41.90
2023-06-24T11:03:52.064Z,41.60
2023-06-24T11:06:19.509Z,42.30
2023-06-24T11:08:48.019Z,41.60
2023-06-24T11:11:25.395Z,40.80
2023-06-24T11:13:52.873Z,41.10
2023-06-24T11:16:23.324Z,40.60
2023-06-24T11:18:50.778Z,41.00
2023-06-24T11:21:18.179Z,41.60
2023-06-24T11:23:46.342Z,41.50
2023-06-24T11:26:16.371Z,41.70
2023-06-24T11:28:43.742Z,41.10
2023-06-24T11:31:11.631Z,41.60
2023-06-24T11:33:39.253Z,41.80
2023-06-24T11:36:10.820Z,42.00
2023-06-24T11:38:38.225Z,41.50
2023-06-24T11:41:05.695Z,41.60
2023-06-24T11:43:33.879Z,41.90
2023-06-24T11:46:01.336Z,40.20
2023-06-24T11:48:29.748Z,41.60
2023-06-24T11:50:57.068Z,41.80
2023-06-24T11:53:32.255Z,40.90
2023-06-24T11:55:59.822Z,41.10
2023-06-24T11:58:27.248Z,41.10
2023-06-24T12:00:56.962Z,42.40
2023-06-24T12:03:25.693Z,42.70
2023-06-24T12:05:53.185Z,42.60
2023-06-24T12:08:20.678Z,43.00
2023-06-24T12:10:48.395Z,41.40
2023-06-24T12:13:17.279Z,40.20
2023-06-24T12:15:44.749Z,39.70
2023-06-24T12:18:13.699Z,39.60
2023-06-24T12:20:41.408Z,39.60
2023-06-24T12:23:10.195Z,39.60
2023-06-24T12:25:37.579Z,40.10
2023-06-24T12:28:05.106Z,39.80
2023-06-24T12:30:32.592Z,40.90
2023-06-24T12:33:00.548Z,40.70
2023-06-24T12:35:28.051Z,40.50
2023-06-24T12:37:55.755Z,40.70
2023-06-24T12:40:23.259Z,41.30
2023-06-24T12:42:50.756Z,41.20
2023-06-24T12:45:18.173Z,40.70
2023-06-24T12:47:45.594Z,40.40
2023-06-24T12:50:13.233Z,40.90
2023-06-24T12:52:40.917Z,41.30
2023-06-24T12:55:09.092Z,40.90
2023-06-24T12:57:37.630Z,40.60
2023-06-24T13:00:09.404Z,40.10
2023-06-24T13:02:37.117Z,39.20
2023-06-24T13:05:05.147Z,40.30
2023-06-24T13:07:32.940Z,40.30
2023-06-24T13:10:02.215Z,40.40
2023-06-24T13:12:29.780Z,40.50
2023-06-24T13:14:57.228Z,38.50
2023-06-24T13:17:26.784Z,38.70
2023-06-24T13:19:54.232Z,38.40
2023-06-24T13:22:22.002Z,37.90
2023-06-24T13:24:49.515Z,37.90
2023-06-24T13:27:18.000Z,37.60
2023-06-24T13:29:45.467Z,37.50
2023-06-24T13:32:13.125Z,38.00
2023-06-24T13:34:40.638Z,38.60
2023-06-24T13:37:08.260Z,38.40
2023-06-24T13:39:36.174Z,38.50
2023-06-24T13:42:03.777Z,38.50
2023-06-24T13:44:31.176Z,37.70
2023-06-24T13:46:58.896Z,37.80
2023-06-24T13:49:26.817Z,37.80
2023-06-24T13:51:54.208Z,37.30
2023-06-24T13:54:22.016Z,37.80
2023-06-24T13:56:49.480Z,38.20
2023-06-24T13:59:16.934Z,38.60
2023-06-24T14:01:45.478Z,38.30
2023-06-24T14:04:12.960Z,38.30
2023-06-24T14:06:41.045Z,38.00
2023-06-24T14:09:09.004Z,37.00
2023-06-24T14:11:36.557Z,37.50
2023-06-24T14:14:04.089Z,38.00
2023-06-24T14:16:31.488Z,38.50
2023-06-24T14:18:59.226Z,37.50
2023-06-24T14:21:26.751Z,37.10
2023-06-24T14:23:55.315Z,37.70
2023-06-24T14:26:27.429Z,36.50
2023-06-24T14:28:56.592Z,35.40
2023-06-24T14:31:24.211Z,35.90
2023-06-24T14:33:51.827Z,35.90
2023-06-24T14:36:19.311Z,35.60
2023-06-24T14:38:46.906Z,36.20
2023-06-24T14:41:14.297Z,35.80
2023-06-24T14:43:41.706Z,36.60
2023-06-24T14:46:09.319Z,36.80
2023-06-24T14:48:37.273Z,36.30
2023-06-24T14:51:04.703Z,36.40
2023-06-24T14:53:32.382Z,35.60
2023-06-24T14:55:59.631Z,36.60
2023-06-24T14:58:27.158Z,35.70
2023-06-24T15:00:54.484Z,36.10
2023-06-24T15:03:22.160Z,36.40
2023-06-24T15:05:49.763Z,36.60
2023-06-24T15:08:17.202Z,35.40
2023-06-24T15:10:44.491Z,35.80
2023-06-24T15:13:11.861Z,34.80
2023-06-24T15:15:39.289Z,35.10
2023-06-24T15:18:06.964Z,34.10
2023-06-24T15:20:34.669Z,33.80
2023-06-24T15:23:02.299Z,33.60
2023-06-24T15:25:29.678Z,33.20
2023-06-24T15:27:59.143Z,33.90
2023-06-24T15:30:27.636Z,34.00
2023-06-24T15:32:55.023Z,34.20
2023-06-24T15:35:22.387Z,34.50
2023-06-24T15:37:50.082Z,34.40
2023-06-24T15:40:17.369Z,34.50
2023-06-24T15:42:44.652Z,34.70
2023-06-24T15:45:12.292Z,33.80
2023-06-24T15:47:39.646Z,34.30
2023-06-24T15:50:07.713Z,34.40
2023-06-24T15:52:35.247Z,34.10
2023-06-24T15:55:02.668Z,34.40
2023-06-24T15:57:30.980Z,34.70
2023-06-24T15:59:58.397Z,33.90
2023-06-24T16:02:26.085Z,34.30
2023-06-24T16:04:53.548Z,34.70
2023-06-24T16:07:21.081Z,34.40
2023-06-24T16:09:48.917Z,34.30
2023-06-24T16:12:17.855Z,34.40
2023-06-24T16:14:45.264Z,34.50
2023-06-24T16:17:12.654Z,33.80
2023-06-24T16:19:40.347Z,33.70
2023-06-24T16:22:07.736Z,33.70
2023-06-24T16:24:35.281Z,33.40
2023-06-24T16:27:02.745Z,33.80
2023-06-24T16:29:30.168Z,33.80
2023-06-24T16:31:57.580Z,33.60
2023-06-24T16:34:25.915Z,34.60
2023-06-24T16:36:54.391Z,33.80
2023-06-24T16:39:22.507Z,33.20
2023-06-24T16:41:50.164Z,33.50
2023-06-24T16:44:17.586Z,33.60
2023-06-24T16:46:45.071Z,34.00
2023-06-24T16:49:12.522Z,33.90
2023-06-24T16:51:41.680Z,33.60
2023-06-24T16:54:09.214Z,34.00
2023-06-24T16:56:36.620Z,33.90
2023-06-24T16:59:04.275Z,34.00
2023-06-24T17:01:33.909Z,33.90
2023-06-24T17:04:01.393Z,34.10
2023-06-24T17:06:28.735Z,33.90
2023-06-24T17:08:57.904Z,33.90
2023-06-24T17:11:25.564Z,34.00
2023-06-24T17:13:53.016Z,34.30
2023-06-24T17:16:20.481Z,34.10
2023-06-24T17:18:48.045Z,34.00
2023-06-24T17:21:15.585Z,34.30
2023-06-24T17:23:43.278Z,34.30
2023-06-24T17:26:10.763Z,34.40
2023-06-24T17:28:38.602Z,34.40
2023-06-24T17:31:06.065Z,34.50
2023-06-24T17:33:33.556Z,34.30
2023-06-24T17:36:01.395Z,34.70
2023-06-24T17:38:29.023Z,34.60
2023-06-24T17:40:56.474Z,34.80
2023-06-24T17:43:23.850Z,35.00
2023-06-24T17:45:51.236Z,34.80
2023-06-24T17:48:18.811Z,34.80
2023-06-24T17:50:46.318Z,35.10
2023-06-24T17:53:13.905Z,35.00
2023-06-24T17:55:41.332Z,35.10
2023-06-24T17:58:08.822Z,35.10
2023-06-24T18:00:41.414Z,35.00
2023-06-24T18:03:10.362Z,35.50
2023-06-24T18:05:38.867Z,35.40
2023-06-24T18:08:06.870Z,35.60
2023-06-24T18:10:36.022Z,36.00
2023-06-24T18:13:04.749Z,36.10
2023-06-24T18:15:32.208Z,36.20
2023-06-24T18:17:59.778Z,36.20
2023-06-24T18:20:27.075Z,36.70
2023-06-24T18:22:55.325Z,36.50
2023-06-24T18:25:22.636Z,37.60
2023-06-24T18:27:49.973Z,36.80
2023-06-24T18:30:17.374Z,37.00
2023-06-24T18:32:44.827Z,37.00
2023-06-24T18:35:12.169Z,37.00
2023-06-24T18:37:39.558Z,37.40
2023-06-24T18:40:07.846Z,37.40
2023-06-24T18:42:35.268Z,37.50
2023-06-24T18:45:02.645Z,37.70
2023-06-24T18:47:30.093Z,37.80
2023-06-24T18:49:57.473Z,38.00
2023-06-24T18:52:24.894Z,38.50
2023-06-24T18:54:52.375Z,38.80
2023-06-24T18:57:19.692Z,38.70
2023-06-24T18:59:47.323Z,38.60
2023-06-24T19:02:14.705Z,39.30
2023-06-24T19:04:43.189Z,39.90
2023-06-24T19:07:10.611Z,40.70
2023-06-24T19:09:38.068Z,40.60
2023-06-24T19:12:05.779Z,40.50
2023-06-24T19:14:33.155Z,40.70
2023-06-24T19:17:00.547Z,41.00
2023-06-24T19:19:28.206Z,41.30
2023-06-24T19:21:55.648Z,41.50
2023-06-24T19:24:23.104Z,43.10
2023-06-24T19:26:51.130Z,44.00
2023-06-24T19:29:18.618Z,44.00
2023-06-24T19:31:46.212Z,44.00
2023-06-24T19:34:13.837Z,44.80
2023-06-24T19:36:41.278Z,45.30
2023-06-24T19:39:08.778Z,46.00
2023-06-24T19:41:36.320Z,46.00
2023-06-24T19:44:06.778Z,46.20
2023-06-24T19:46:41.964Z,47.20
2023-06-24T19:49:13.347Z,47.80
2023-06-24T19:51:41.322Z,48.80
2023-06-24T19:54:08.812Z,49.40
2023-06-24T19:56:36.115Z,49.60
2023-06-24T19:59:03.850Z,49.30
2023-06-24T20:01:31.369Z,49.50
2023-06-24T20:03:58.842Z,49.80
2023-06-24T20:06:26.340Z,49.40
2023-06-24T20:08:53.725Z,49.40
2023-06-24T20:11:21.160Z,49.80
2023-06-24T20:13:49.769Z,50.30
2023-06-24T20:16:17.172Z,50.70
2023-06-24T20:18:44.604Z,50.30
2023-06-24T20:21:14.890Z,50.90
2023-06-24T20:23:42.938Z,51.60
2023-06-24T20:26:10.714Z,51.90
2023-06-24T20:28:38.264Z,52.10
2023-06-24T20:31:05.669Z,52.70
2023-06-24T20:33:33.818Z,52.70
2023-06-24T20:36:01.396Z,53.10
2023-06-24T20:38:28.842Z,53.50
2023-06-24T20:40:59.092Z,53.80
2023-06-24T20:43:27.050Z,54.30
2023-06-24T20:45:55.560Z,54.00
2023-06-24T20:48:24.596Z,54.40
2023-06-24T20:50:52.057Z,54.60
2023-06-24T20:53:19.531Z,55.00
2023-06-24T20:55:46.987Z,55.10
2023-06-24T20:58:14.422Z,55.30
2023-06-24T21:00:41.864Z,55.50
2023-06-24T21:03:09.430Z,56.00
2023-06-24T21:05:38.124Z,56.00
2023-06-24T21:08:05.807Z,55.90
2023-06-24T21:10:33.263Z,55.90
2023-06-24T21:13:00.762Z,55.80
2023-06-24T21:15:28.192Z,56.00
2023-06-24T21:17:56.068Z,56.20
2023-06-24T21:20:23.598Z,56.70
2023-06-24T21:22:51.135Z,56.60
2023-06-24T21:25:18.526Z,57.10
2023-06-24T21:27:46.198Z,57.40
2023-06-24T21:30:13.898Z,57.50
2023-06-24T21:32:41.376Z,57.70
2023-06-24T21:35:09.609Z,58.10
2023-06-24T21:37:37.058Z,58.00
2023-06-24T21:40:04.874Z,58.10
2023-06-24T21:42:32.245Z,58.30
2023-06-24T21:44:59.867Z,58.50
2023-06-24T21:47:27.340Z,59.30
2023-06-24T21:49:54.887Z,59.40
2023-06-24T21:52:22.357Z,59.50
2023-06-24T21:54:49.809Z,59.10
2023-06-24T21:57:18.688Z,59.40
2023-06-24T21:59:46.632Z,59.70
2023-06-24T22:02:14.154Z,59.40
2023-06-24T22:04:41.716Z,59.60
2023-06-24T22:07:09.198Z,59.90
2023-06-24T22:09:36.515Z,60.00
2023-06-24T22:12:04.140Z,60.00
2023-06-24T22:14:31.965Z,60.60
2023-06-24T22:16:59.258Z,60.20
2023-06-24T22:19:26.495Z,60.00
2023-06-24T22:21:53.779Z,60.30
2023-06-24T22:24:21.032Z,60.30
2023-06-24T22:26:48.374Z,60.30
2023-06-24T22:29:15.696Z,60.30
2023-06-24T22:31:43.086Z,60.40
2023-06-24T22:34:10.445Z,60.50
2023-06-24T22:36:38.988Z,60.70
2023-06-24T22:39:07.652Z,60.80
2023-06-24T22:41:35.025Z,60.70
2023-06-24T22:44:02.646Z,60.60
2023-06-24T22:46:29.937Z,60.80
2023-06-24T22:48:57.173Z,61.00
2023-06-24T22:51:24.602Z,61.40
2023-06-24T22:53:52.031Z,61.70
2023-06-24T22:56:19.423Z,61.70
2023-06-24T22:58:47.272Z,62.90
2023-06-24T23:01:14.894Z,62.20
2023-06-24T23:03:42.569Z,62.40
2023-06-24T23:06:10.550Z,62.50
2023-06-24T23:08:38.291Z,62.30
2023-06-24T23:11:05.920Z,62.40
2023-06-24T23:13:34.366Z,62.80
2023-06-24T23:16:03.256Z,62.70
2023-06-24T23:18:31.341Z,62.80
2023-06-24T23:20:59.482Z,63.70
2023-06-24T23:23:27.432Z,63.70
2023-06-24T23:25:55.022Z,63.70
2023-06-24T23:28:24.775Z,63.60
2023-06-24T23:30:54.903Z,63.30
2023-06-24T23:33:22.840Z,63.30
2023-06-24T23:35:51.076Z,63.50
2023-06-24T23:38:19.814Z,63.90
2023-06-24T23:40:47.814Z,64.40
2023-06-24T23:43:15.487Z,64.40
2023-06-24T23:45:47.909Z,64.20
2023-06-24T23:48:15.383Z,64.20
2023-06-24T23:50:42.862Z,64.10
2023-06-24T23:53:10.345Z,64.00
2023-06-24T23:55:38.209Z,64.00
2023-06-24T23:58:05.711Z,64.10
